Ana Sayfa
METAR-TAF:

METAR-TAF

Havaalanları :

Ontario Municipal Airport

Ontario, Oregon, Amerika Birleşik Devletleri

Enlem: 44-01-10N, Boylam: 117-00-35W, yükseklik: 667 m

Güncel hava durumu gözlemi

Rapor saat 08:53 UTC de 33 dakika önce yapıldı.
Rüzgar batıdan 7 kt
Sıcaklık 22°C
Nem 38%
Basınç 1016 hPa
Görüş mesafesi: 16.1 km
Açık gökyüzü

METAR: KONO 180853Z AUTO 27007KT 10SM CLR 22/07 A2999 RMK AO2 SLP135 T02220072 51004

Saat: 03:26 (09:26 UTC)


TAF: eksik

4.000'den fazla havaalanı için hava durumu gözlemleri ve tahminleri (METAR ve TAF raporları).

Kullanılabilir istasyonlar harita üzerinde sarı ve kırmızı noktalarla gösterilir.

İstasyonun adını görmek için fareyi noktanın üzerinde gezdirin.

Sonrasında hava gözlem ve tahminlerini görmek için tıklayın.

Haritayı değiştirmek için: yaklaştırmak için siyah artı işaretli yeşil düğmeye ve uzaklaştırmak için de eksi işaretli düğmeye hızla tıklayın; bitişik haritalar için yeşil okları kullanın.


METAR-TAF: